Terminal Aerodrome Forecast
Issued by NWS Albuquerque, NM

Current Version | Previous Version | Text Only | Print | Product List | Glossary On
Versions: 1 2 3 4 5 6 7 8 9 10 11 12 13
000
FTUS45 KABQ 271128
TAFABQ
TAF
KABQ 271128Z 2712/2812 36006KT P6SM SCT200
     FM271600 20007KT P6SM SCT090 SCT250
     FM272100 23010G16KT P6SM BKN090
     FM280000 26007KT P6SM BKN080=

USA.gov is the U.S. government's official web portal to all federal, state and local government web resources and services.